Time;durP1;ratioP1;P1;durP2;ratioP2;P2;SDS_P1;SDS_P2;PMS_P1;PMS_P2;Temp;Humidity;BMP_temperature;BMP_pressure;BME280_temperature;BME280_humidity;BME280_pressure;Samples;Min_cycle;Max_cycle;Signal;HPM_P1;HPM_P2
2021/09/24 00:02:25;;;;;;;15.60;2.20;;;10.30;99.90;;;;;;5249056;28;20207;-67
2021/09/24 00:05:00;;;;;;;14.77;1.83;;;10.40;99.90;;;;;;5247856;28;20327;-66
2021/09/24 00:07:34;;;;;;;12.43;2.00;;;10.40;99.90;;;;;;5249154;28;20204;-67
2021/09/24 00:10:07;;;;;;;13.73;2.00;;;10.40;99.90;;;;;;5248867;28;20236;-70
2021/09/24 00:12:45;;;;;;;16.37;2.23;;;10.40;99.90;;;;;;5249889;28;20208;-67
2021/09/24 00:15:18;;;;;;;17.90;2.37;;;10.40;99.90;;;;;;5251034;28;20243;-64
2021/09/24 00:17:50;;;;;;;10.97;2.20;;;10.40;99.90;;;;;;5249839;28;20236;-67
2021/09/24 00:20:22;;;;;;;19.83;2.70;;;10.40;99.90;;;;;;5249314;28;20389;-67
2021/09/24 00:22:54;;;;;;;15.03;2.50;;;10.30;99.90;;;;;;5247800;28;20212;-69
2021/09/24 00:25:27;;;;;;;11.23;2.40;;;10.40;99.90;;;;;;5248803;28;20232;-68
2021/09/24 00:28:03;;;;;;;7.17;1.60;;;10.40;99.90;;;;;;5249011;28;20212;-72
2021/09/24 00:30:36;;;;;;;11.90;2.03;;;10.40;99.90;;;;;;5249008;28;20229;-71
2021/09/24 00:33:08;;;;;;;13.03;1.97;;;10.50;99.90;;;;;;5248565;28;20204;-68
2021/09/24 00:35:40;;;;;;;12.67;1.97;;;10.50;99.90;;;;;;5252257;28;20282;-67
2021/09/24 00:38:12;;;;;;;11.50;1.80;;;10.50;99.90;;;;;;5253010;28;20205;-68
2021/09/24 00:40:46;;;;;;;13.17;1.77;;;10.60;99.90;;;;;;5252500;28;20697;-67
2021/09/24 00:43:19;;;;;;;12.63;2.20;;;10.70;99.90;;;;;;5253154;28;20204;-69
2021/09/24 00:45:51;;;;;;;14.00;1.93;;;10.70;99.90;;;;;;5252850;28;20232;-71
2021/09/24 00:48:26;;;;;;;10.67;1.47;;;10.70;99.90;;;;;;5251899;28;20204;-67
2021/09/24 00:50:59;;;;;;;12.77;2.03;;;10.70;99.90;;;;;;5254324;28;20679;-68
2021/09/24 00:53:31;;;;;;;9.50;1.60;;;10.70;99.90;;;;;;5253340;28;20256;-70
2021/09/24 00:56:04;;;;;;;11.67;2.07;;;10.80;99.90;;;;;;5251877;28;20398;-65
2021/09/24 00:58:36;;;;;;;7.87;1.60;;;10.80;99.90;;;;;;5252528;28;20628;-69
2021/09/24 01:01:10;;;;;;;10.53;1.30;;;10.90;99.90;;;;;;5252421;28;20344;-69
2021/09/24 01:03:43;;;;;;;13.40;2.17;;;10.80;99.90;;;;;;5252539;28;20535;-69
2021/09/24 01:06:18;;;;;;;8.60;1.47;;;10.90;99.90;;;;;;5252686;28;20742;-70
2021/09/24 01:08:54;;;;;;;11.30;1.73;;;10.90;99.90;;;;;;5252492;28;20216;-70
2021/09/24 01:11:26;;;;;;;10.83;1.43;;;10.90;99.90;;;;;;5252212;28;20323;-67
2021/09/24 01:13:58;;;;;;;11.47;1.70;;;10.90;99.90;;;;;;5252147;28;20205;-67
2021/09/24 01:16:33;;;;;;;10.10;1.63;;;10.90;99.90;;;;;;5252046;28;20229;-68
2021/09/24 01:19:05;;;;;;;9.40;1.50;;;11.00;99.90;;;;;;5251169;28;20636;-68
2021/09/24 01:21:42;;;;;;;13.73;1.97;;;11.00;99.90;;;;;;5253157;28;20627;-68
2021/09/24 01:24:14;;;;;;;6.57;1.30;;;11.10;99.90;;;;;;5252559;28;20272;-67
2021/09/24 01:26:52;;;;;;;10.57;1.67;;;11.10;99.90;;;;;;5251913;28;20231;-67
2021/09/24 01:29:27;;;;;;;12.47;1.73;;;11.20;99.90;;;;;;5252224;28;20189;-70
2021/09/24 01:32:00;;;;;;;5.63;1.20;;;11.30;99.90;;;;;;5251638;28;20271;-67
2021/09/24 01:34:34;;;;;;;11.67;1.60;;;11.30;99.90;;;;;;5250863;28;20201;-68
2021/09/24 01:37:06;;;;;;;9.93;1.53;;;11.30;99.90;;;;;;5251875;28;20282;-70
2021/09/24 01:39:38;;;;;;;11.53;1.53;;;11.30;99.90;;;;;;5251134;28;20212;-67
2021/09/24 01:42:10;;;;;;;10.47;1.57;;;11.30;99.90;;;;;;5250841;28;20316;-68
2021/09/24 01:44:42;;;;;;;13.83;2.17;;;11.30;99.90;;;;;;5250718;28;20239;-68
2021/09/24 01:47:14;;;;;;;14.37;1.80;;;11.20;99.90;;;;;;5250518;28;20232;-69
2021/09/24 01:49:46;;;;;;;11.03;1.47;;;11.20;99.90;;;;;;5250561;28;20294;-69
2021/09/24 01:52:18;;;;;;;8.90;1.43;;;11.20;99.90;;;;;;5251257;28;20233;-67
2021/09/24 01:54:50;;;;;;;12.47;1.60;;;11.20;99.90;;;;;;5251535;28;20203;-69
2021/09/24 01:57:23;;;;;;;9.53;1.60;;;11.20;99.90;;;;;;5250560;28;20278;-71
2021/09/24 01:59:55;;;;;;;11.17;1.93;;;11.10;99.90;;;;;;5251217;28;20205;-68
2021/09/24 02:02:27;;;;;;;10.17;1.50;;;11.10;99.90;;;;;;5252261;28;20228;-71
2021/09/24 02:05:03;;;;;;;8.63;1.77;;;11.10;99.90;;;;;;5253187;28;20562;-65
2021/09/24 02:07:35;;;;;;;11.60;1.47;;;11.10;99.90;;;;;;5251333;28;20281;-70
2021/09/24 02:10:08;;;;;;;9.03;1.50;;;11.00;99.90;;;;;;5251212;28;20628;-70
2021/09/24 02:12:40;;;;;;;6.37;1.50;;;11.00;99.90;;;;;;5251079;28;20335;-70
2021/09/24 02:15:15;;;;;;;8.47;1.33;;;10.90;99.90;;;;;;5250036;28;20200;-66
2021/09/24 02:17:50;;;;;;;8.30;1.50;;;10.90;99.90;;;;;;5249965;28;20262;-66
2021/09/24 02:20:24;;;;;;;8.87;1.67;;;10.80;99.90;;;;;;5251307;28;20206;-69
2021/09/24 02:22:56;;;;;;;10.90;2.20;;;10.80;99.90;;;;;;5251505;28;20246;-71
2021/09/24 02:25:31;;;;;;;9.53;1.73;;;10.70;99.90;;;;;;5251410;28;20195;-66
2021/09/24 02:28:03;;;;;;;12.73;2.47;;;10.70;99.90;;;;;;5250880;28;20200;-67
2021/09/24 02:30:35;;;;;;;13.07;1.77;;;10.70;99.90;;;;;;5250389;28;20280;-65
2021/09/24 02:33:07;;;;;;;10.13;1.77;;;10.60;99.90;;;;;;5251187;28;20345;-67
2021/09/24 02:35:39;;;;;;;18.03;1.50;;;10.60;99.90;;;;;;5252294;28;20201;-68
2021/09/24 02:38:12;;;;;;;15.00;2.10;;;10.60;99.90;;;;;;5251604;28;20196;-66
2021/09/24 02:40:44;;;;;;;11.53;1.77;;;10.60;99.90;;;;;;5249685;28;20232;-69
2021/09/24 02:43:16;;;;;;;13.10;1.83;;;10.60;99.90;;;;;;5249395;28;20201;-69
2021/09/24 02:45:50;;;;;;;11.93;1.77;;;10.60;99.90;;;;;;5250443;28;20201;-69
2021/09/24 02:48:22;;;;;;;11.80;1.60;;;10.60;99.90;;;;;;5249380;28;20207;-70
2021/09/24 02:50:54;;;;;;;12.30;1.70;;;10.60;99.90;;;;;;5249977;28;20327;-67
2021/09/24 02:53:29;;;;;;;11.43;1.93;;;10.60;99.90;;;;;;5250348;28;20547;-66
2021/09/24 02:56:01;;;;;;;9.80;2.27;;;10.60;99.90;;;;;;5250414;28;20243;-67
2021/09/24 02:58:33;;;;;;;8.73;2.03;;;10.70;99.90;;;;;;5250122;28;20321;-68
2021/09/24 03:01:06;;;;;;;15.67;1.93;;;10.70;99.90;;;;;;5249902;28;20268;-68
2021/09/24 03:03:38;;;;;;;12.07;1.57;;;10.70;99.90;;;;;;5250461;28;20516;-68
2021/09/24 03:06:10;;;;;;;11.93;2.03;;;10.70;99.90;;;;;;5252221;28;20205;-66
2021/09/24 03:08:43;;;;;;;8.87;1.40;;;10.70;99.90;;;;;;5254040;28;20285;-66
2021/09/24 03:11:17;;;;;;;8.83;1.40;;;10.80;99.90;;;;;;5251197;28;20268;-67
2021/09/24 03:13:49;;;;;;;13.50;1.87;;;10.80;99.90;;;;;;5249941;28;20722;-70
2021/09/24 03:16:24;;;;;;;14.03;2.00;;;10.80;99.90;;;;;;5249846;28;20247;-66
2021/09/24 03:18:56;;;;;;;11.67;1.70;;;10.80;99.90;;;;;;5232467;28;20196;-69
2021/09/24 03:21:28;;;;;;;11.87;2.23;;;10.80;99.90;;;;;;5249533;28;20201;-69
2021/09/24 03:24:00;;;;;;;14.20;1.90;;;10.80;99.90;;;;;;5249907;28;20659;-65
2021/09/24 03:26:32;;;;;;;13.27;1.90;;;10.80;99.90;;;;;;5249703;28;20323;-66
2021/09/24 03:29:07;;;;;;;11.53;1.80;;;10.80;99.90;;;;;;5249592;28;20223;-70
2021/09/24 03:31:41;;;;;;;7.73;1.50;;;10.80;99.90;;;;;;5249359;28;20263;-69
2021/09/24 03:34:13;;;;;;;11.43;1.77;;;10.80;99.90;;;;;;5249273;28;20608;-71
2021/09/24 03:36:45;;;;;;;11.33;2.10;;;10.90;99.90;;;;;;5248257;28;20201;-68
2021/09/24 03:39:19;;;;;;;8.77;1.80;;;10.90;99.90;;;;;;5250175;28;20201;-68
2021/09/24 03:41:54;;;;;;;10.27;1.70;;;10.90;99.90;;;;;;5250532;28;20204;-67
2021/09/24 03:44:26;;;;;;;14.47;1.70;;;10.90;99.90;;;;;;5249414;28;20205;-69
2021/09/24 03:46:58;;;;;;;12.80;2.37;;;11.00;99.90;;;;;;5231897;28;20248;-71
2021/09/24 03:49:33;;;;;;;8.53;1.97;;;11.00;99.90;;;;;;5249222;28;20304;-66
2021/09/24 03:52:05;;;;;;;15.67;2.10;;;10.90;99.90;;;;;;5248730;28;20232;-69
2021/09/24 03:54:39;;;;;;;9.77;2.17;;;11.00;99.90;;;;;;5249437;28;20243;-71
2021/09/24 03:57:11;;;;;;;11.93;2.20;;;11.00;99.90;;;;;;5249184;28;20713;-69
2021/09/24 03:59:45;;;;;;;10.27;1.73;;;11.00;99.90;;;;;;5249310;28;20612;-68
2021/09/24 04:02:20;;;;;;;16.20;2.40;;;11.00;99.90;;;;;;5247766;28;20279;-70
2021/09/24 04:04:52;;;;;;;10.67;1.70;;;11.00;99.90;;;;;;5248482;28;20188;-68
2021/09/24 04:07:24;;;;;;;12.77;2.77;;;11.10;99.90;;;;;;5249269;28;20204;-70
2021/09/24 04:09:57;;;;;;;15.83;2.00;;;11.10;99.90;;;;;;5248726;28;20262;-69
2021/09/24 04:12:29;;;;;;;13.57;1.80;;;11.10;99.90;;;;;;5250705;28;20232;-71
2021/09/24 04:15:03;;;;;;;10.97;1.77;;;11.20;99.90;;;;;;5250862;28;20204;-70
2021/09/24 04:17:35;;;;;;;7.33;1.37;;;11.20;99.90;;;;;;5249355;28;20243;-72
2021/09/24 04:20:08;;;;;;;13.10;2.30;;;11.30;99.90;;;;;;5249154;28;20201;-69
2021/09/24 04:22:42;;;;;;;12.30;1.70;;;11.30;99.90;;;;;;5249357;28;20271;-71
2021/09/24 04:25:14;;;;;;;12.33;1.93;;;11.40;99.90;;;;;;5249082;28;20294;-70
2021/09/24 04:27:46;;;;;;;11.57;1.50;;;11.40;99.90;;;;;;5248828;28;20341;-68
2021/09/24 04:30:21;;;;;;;8.93;1.50;;;11.50;99.90;;;;;;5248803;28;20318;-68
2021/09/24 04:32:53;;;;;;;12.97;1.50;;;11.50;99.90;;;;;;5248804;28;20242;-65
2021/09/24 04:35:25;;;;;;;11.07;1.70;;;11.50;99.90;;;;;;5248750;28;20223;-65
2021/09/24 04:37:57;;;;;;;10.53;1.73;;;11.50;99.90;;;;;;5248291;28;20235;-70
2021/09/24 04:40:29;;;;;;;9.50;1.83;;;11.50;99.90;;;;;;5248974;28;20255;-67
2021/09/24 04:43:04;;;;;;;11.27;1.90;;;11.50;99.90;;;;;;5250279;28;20251;-65
2021/09/24 04:45:39;;;;;;;10.87;1.90;;;11.50;99.90;;;;;;5253020;28;20204;-68
2021/09/24 04:48:11;;;;;;;8.67;1.43;;;11.50;99.90;;;;;;5229630;28;20213;-71
2021/09/24 04:50:43;;;;;;;14.03;2.10;;;11.50;99.90;;;;;;5228114;28;20215;-67
2021/09/24 04:53:14;;;;;;;12.40;1.80;;;11.50;99.90;;;;;;5227507;28;20233;-68
2021/09/24 04:55:46;;;;;;;15.43;1.77;;;11.50;99.90;;;;;;5228002;28;20202;-69
2021/09/24 04:58:18;;;;;;;17.07;2.13;;;11.50;99.90;;;;;;5226808;28;20240;-72
2021/09/24 05:00:50;;;;;;;9.30;1.70;;;11.50;99.90;;;;;;5226303;28;20248;-67
2021/09/24 05:03:22;;;;;;;11.43;1.40;;;11.50;99.90;;;;;;5227849;28;20229;-71
2021/09/24 05:05:54;;;;;;;11.10;1.60;;;11.60;99.90;;;;;;5227599;28;20216;-69
2021/09/24 05:08:27;;;;;;;12.67;2.23;;;11.60;99.90;;;;;;5227550;28;20236;-72
2021/09/24 05:10:59;;;;;;;14.23;2.07;;;11.70;99.90;;;;;;5226909;28;20300;-67
2021/09/24 05:13:33;;;;;;;11.70;2.80;;;11.70;99.90;;;;;;5227882;28;20244;-70
2021/09/24 05:16:05;;;;;;;12.03;1.70;;;11.70;99.90;;;;;;5228075;28;20228;-71
2021/09/24 05:18:38;;;;;;;12.70;1.77;;;11.70;99.90;;;;;;5260648;28;20226;-70
2021/09/24 05:21:10;;;;;;;9.40;1.73;;;11.80;99.90;;;;;;5230348;28;20206;-69
2021/09/24 05:23:42;;;;;;;18.33;2.47;;;11.80;99.90;;;;;;5232223;28;20226;-65
2021/09/24 05:26:15;;;;;;;10.37;1.33;;;11.80;99.90;;;;;;5233724;28;20665;-66
2021/09/24 05:28:46;;;;;;;12.30;1.67;;;11.90;99.90;;;;;;5233046;28;20225;-67
2021/09/24 05:31:18;;;;;;;10.80;1.70;;;11.90;99.90;;;;;;5233288;28;20623;-68
2021/09/24 05:33:51;;;;;;;8.90;1.70;;;11.90;99.90;;;;;;5233869;28;20229;-66
2021/09/24 05:36:23;;;;;;;9.00;1.80;;;11.90;99.90;;;;;;5230504;28;20221;-68
2021/09/24 05:38:55;;;;;;;10.47;3.20;;;12.00;99.90;;;;;;5231433;28;20205;-71
2021/09/24 05:41:27;;;;;;;7.20;1.53;;;12.10;99.90;;;;;;5231545;28;20202;-66
2021/09/24 05:43:59;;;;;;;7.87;1.83;;;12.10;99.90;;;;;;5231094;28;20606;-67
2021/09/24 05:46:33;;;;;;;10.83;1.80;;;12.20;99.90;;;;;;5231804;28;20185;-65
2021/09/24 05:49:10;;;;;;;9.70;1.90;;;12.20;99.90;;;;;;5231528;28;20210;-68
2021/09/24 05:51:45;;;;;;;9.90;1.50;;;12.30;99.90;;;;;;5231427;28;20610;-63
2021/09/24 05:54:17;;;;;;;11.13;2.10;;;12.30;99.90;;;;;;5230920;28;20200;-68
2021/09/24 05:56:50;;;;;;;11.17;1.87;;;12.30;99.90;;;;;;5244544;28;20209;-63
2021/09/24 05:59:22;;;;;;;8.40;1.53;;;12.40;99.90;;;;;;5250188;28;20205;-66
2021/09/24 06:01:54;;;;;;;10.10;1.50;;;12.40;99.90;;;;;;5249770;28;20237;-66
2021/09/24 06:04:26;;;;;;;11.37;1.57;;;12.40;99.90;;;;;;5250700;28;20209;-67
2021/09/24 06:06:58;;;;;;;12.57;1.60;;;12.40;99.90;;;;;;5251909;28;20200;-68
2021/09/24 06:09:32;;;;;;;6.77;1.67;;;12.40;99.90;;;;;;5252808;28;20639;-66
2021/09/24 06:12:07;;;;;;;9.87;1.63;;;12.50;99.90;;;;;;5251648;28;20224;-68
2021/09/24 06:14:39;;;;;;;15.00;1.50;;;12.50;99.90;;;;;;5251417;28;20204;-61
2021/09/24 06:17:16;;;;;;;8.87;1.50;;;12.60;99.90;;;;;;5251234;28;20225;-68
2021/09/24 06:19:48;;;;;;;11.77;1.60;;;12.60;99.90;;;;;;5250705;28;20197;-66
2021/09/24 06:22:20;;;;;;;10.57;1.70;;;12.60;99.90;;;;;;5249355;28;20671;-64
2021/09/24 06:24:53;;;;;;;7.37;1.70;;;12.70;99.90;;;;;;5250092;28;20209;-65
2021/09/24 06:27:28;;;;;;;12.27;2.50;;;12.70;99.90;;;;;;5250863;28;20308;-66
2021/09/24 06:30:00;;;;;;;12.13;2.17;;;12.80;99.90;;;;;;5250321;28;20223;-64
2021/09/24 06:32:32;;;;;;;11.37;1.87;;;13.30;99.90;;;;;;5260168;28;20223;-70
2021/09/24 06:35:05;;;;;;;7.10;1.93;;;14.40;99.90;;;;;;5249691;28;20215;-69
2021/09/24 06:37:38;;;;;;;9.37;2.23;;;15.50;99.90;;;;;;5251152;28;20633;-68
2021/09/24 06:40:13;;;;;;;8.47;2.07;;;16.40;99.90;;;;;;5250349;28;20201;-71
2021/09/24 06:42:48;;;;;;;8.90;1.50;;;17.10;99.90;;;;;;5249597;28;20204;-68
2021/09/24 06:45:20;;;;;;;6.13;1.20;;;17.70;99.90;;;;;;5250530;28;20200;-66
2021/09/24 06:47:52;;;;;;;7.45;1.20;;;18.40;99.90;;;;;;5251065;28;20209;-66
2021/09/24 06:50:27;;;;;;;7.32;1.20;;;18.70;99.90;;;;;;5251111;28;20200;-68
2021/09/24 06:52:59;;;;;;;6.55;1.50;;;18.80;99.90;;;;;;5251339;28;20598;-67
2021/09/24 06:55:31;;;;;;;7.15;1.48;;;19.00;99.90;;;;;;5250294;28;20205;-67
2021/09/24 06:58:03;;;;;;;6.55;1.30;;;19.20;99.90;;;;;;5248925;28;20227;-68
2021/09/24 07:00:35;;;;;;;5.55;1.42;;;19.20;99.90;;;;;;5248873;28;20239;-64
2021/09/24 07:03:08;;;;;;;7.53;1.52;;;19.00;99.90;;;;;;5248866;28;20223;-66
2021/09/24 07:05:40;;;;;;;7.45;1.83;;;19.00;99.90;;;;;;5249936;28;20529;-69
2021/09/24 07:08:12;;;;;;;4.50;1.10;;;19.00;99.90;;;;;;5250142;28;20208;-69
2021/09/24 07:10:44;;;;;;;8.27;1.60;;;19.10;99.90;;;;;;5250095;28;20197;-66
2021/09/24 07:13:16;;;;;;;7.20;1.33;;;18.90;99.90;;;;;;5249347;28;20315;-68
2021/09/24 07:15:48;;;;;;;8.32;1.67;;;18.70;99.90;;;;;;5250506;28;20201;-67
2021/09/24 07:18:20;;;;;;;5.35;1.17;;;18.70;99.90;;;;;;5249939;28;20200;-67
2021/09/24 07:20:52;;;;;;;8.00;1.63;;;18.50;99.90;;;;;;5250289;28;20553;-66
2021/09/24 07:23:27;;;;;;;6.30;1.63;;;18.10;99.90;;;;;;5250148;28;20205;-66
2021/09/24 07:25:59;;;;;;;4.30;0.95;;;17.90;99.90;;;;;;5250007;28;20241;-67
2021/09/24 07:28:31;;;;;;;9.40;1.75;;;17.40;99.90;;;;;;5249880;28;20621;-67
2021/09/24 07:31:03;;;;;;;10.05;1.38;;;16.50;99.90;;;;;;5250250;28;20209;-67
2021/09/24 07:33:35;;;;;;;4.60;0.80;;;16.10;99.90;;;;;;5249382;28;20217;-65
2021/09/24 07:36:07;;;;;;;7.43;1.27;;;15.80;99.90;;;;;;5250376;28;20201;-63
2021/09/24 07:38:39;;;;;;;5.93;1.33;;;15.60;99.90;;;;;;5249304;28;20200;-63
2021/09/24 07:41:13;;;;;;;8.03;1.13;;;15.60;99.90;;;;;;5250501;28;20212;-62
2021/09/24 07:43:48;;;;;;;8.20;1.23;;;15.50;99.90;;;;;;5250069;28;20650;-65
2021/09/24 07:46:21;;;;;;;7.17;0.87;;;15.60;99.90;;;;;;5249356;28;20211;-66
2021/09/24 07:48:55;;;;;;;6.57;1.30;;;15.60;99.90;;;;;;5250092;28;20537;-63
2021/09/24 07:51:30;;;;;;;10.60;1.03;;;15.60;99.90;;;;;;5249788;28;20205;-66
2021/09/24 07:54:02;;;;;;;6.97;1.20;;;15.30;99.90;;;;;;5249457;28;20220;-62
2021/09/24 07:56:34;;;;;;;6.00;1.67;;;15.20;99.90;;;;;;5249523;28;20200;-63
2021/09/24 07:59:07;;;;;;;11.60;1.30;;;15.30;99.90;;;;;;5248516;28;20185;-63
2021/09/24 08:01:39;;;;;;;4.93;1.00;;;15.30;99.90;;;;;;5249235;28;20229;-67
2021/09/24 08:04:13;;;;;;;6.90;1.30;;;15.30;99.90;;;;;;5252763;28;20639;-68
2021/09/24 08:06:45;;;;;;;6.07;1.10;;;15.40;99.90;;;;;;5233946;28;20211;-63
2021/09/24 08:09:17;;;;;;;5.10;1.17;;;15.30;99.90;;;;;;5246584;28;20271;-66
2021/09/24 08:11:51;;;;;;;5.70;1.10;;;15.10;99.90;;;;;;5248994;28;20528;-64
2021/09/24 08:14:29;;;;;;;4.13;1.00;;;15.10;99.90;;;;;;5249285;28;20217;-67
2021/09/24 08:17:01;;;;;;;3.73;1.17;;;15.00;99.90;;;;;;5249337;28;20224;-63
2021/09/24 08:19:33;;;;;;;6.27;0.83;;;15.10;99.90;;;;;;5247742;28;20212;-63
2021/09/24 08:22:06;;;;;;;7.57;1.00;;;15.20;99.90;;;;;;5246875;28;20303;-69
2021/09/24 08:24:38;;;;;;;7.37;1.07;;;15.20;99.90;;;;;;5249090;28;20211;-63
2021/09/24 08:27:11;;;;;;;4.30;0.80;;;15.20;99.90;;;;;;5248072;28;20201;-66
2021/09/24 08:29:43;;;;;;;7.40;1.07;;;15.20;99.90;;;;;;5281458;28;20200;-66
2021/09/24 08:32:15;;;;;;;5.50;1.20;;;15.30;99.90;;;;;;5248974;28;20215;-65
2021/09/24 08:34:47;;;;;;;4.13;0.90;;;15.40;99.90;;;;;;5248636;28;20225;-68
2021/09/24 08:37:19;;;;;;;8.50;0.90;;;15.50;99.90;;;;;;5248862;28;20208;-64
2021/09/24 08:39:51;;;;;;;6.97;1.43;;;15.50;99.90;;;;;;5248565;28;20320;-65
2021/09/24 08:42:23;;;;;;;3.90;0.70;;;15.40;99.90;;;;;;5248034;28;20205;-66
2021/09/24 08:44:55;;;;;;;4.03;0.73;;;15.40;99.90;;;;;;5247843;28;20213;-68
2021/09/24 08:47:28;;;;;;;3.33;0.70;;;15.20;99.90;;;;;;5247791;28;20219;-65
2021/09/24 08:50:01;;;;;;;7.77;1.10;;;15.00;99.90;;;;;;5227352;28;20225;-65
2021/09/24 08:52:38;;;;;;;4.97;0.93;;;15.10;99.90;;;;;;5227225;28;20232;-65
2021/09/24 08:55:11;;;;;;;6.57;1.10;;;15.10;99.90;;;;;;5230042;28;20229;-64
2021/09/24 08:57:44;;;;;;;8.37;1.10;;;15.30;99.90;;;;;;5249466;28;20206;-67
2021/09/24 09:00:19;;;;;;;4.30;0.73;;;15.40;99.90;;;;;;5232555;28;20237;-70
2021/09/24 09:03:14;;;;;;;8.77;0.80;;;15.50;99.90;;;;;;5232329;28;20243;-65
2021/09/24 09:05:59;;;;;;;3.50;0.60;;;15.50;99.90;;;;;;5231377;28;20284;-65
2021/09/24 09:08:34;;;;;;;4.97;0.63;;;15.50;99.90;;;;;;5247602;28;20205;-68
2021/09/24 09:11:16;;;;;;;5.47;0.70;;;15.60;99.90;;;;;;5250598;28;20197;-63
2021/09/24 09:13:55;;;;;;;5.33;0.73;;;15.80;99.90;;;;;;5265340;28;20242;-66
2021/09/24 09:16:38;;;;;;;5.30;0.80;;;15.90;99.90;;;;;;5262456;28;20200;-67
2021/09/24 09:19:21;;;;;;;5.23;0.77;;;16.00;99.90;;;;;;5251603;28;20205;-67
2021/09/24 09:21:55;;;;;;;8.10;0.90;;;16.10;99.90;;;;;;5252560;28;20185;-65
2021/09/24 09:24:43;;;;;;;3.03;0.70;;;16.10;99.90;;;;;;5252822;28;20196;-68
2021/09/24 09:27:21;;;;;;;4.87;0.90;;;16.10;99.90;;;;;;5253812;28;20222;-65
2021/09/24 09:30:12;;;;;;;5.67;0.83;;;16.10;99.90;;;;;;5253121;28;20188;-67
2021/09/24 09:32:59;;;;;;;9.60;1.00;;;16.00;99.90;;;;;;5251244;28;20233;-66
2021/09/24 09:35:37;;;;;;;4.50;0.83;;;15.90;99.90;;;;;;5251396;28;20217;-72
2021/09/24 09:38:25;;;;;;;5.60;0.97;;;15.90;99.90;;;;;;5252325;28;20181;-67
2021/09/24 09:41:02;;;;;;;9.60;1.00;;;16.10;99.90;;;;;;5250616;28;20611;-68
2021/09/24 09:43:35;;;;;;;5.30;0.70;;;16.30;99.90;;;;;;5252132;28;20239;-64
2021/09/24 09:46:13;;;;;;;4.33;0.67;;;16.30;99.90;;;;;;5251751;28;20331;-66
2021/09/24 09:49:04;;;;;;;4.43;0.80;;;16.30;99.90;;;;;;5250727;28;20530;-63
2021/09/24 09:51:39;;;;;;;8.17;0.77;;;16.20;99.90;;;;;;5250987;28;20229;-69
2021/09/24 09:54:25;;;;;;;3.47;0.87;;;16.00;99.90;;;;;;5252275;28;20228;-65
2021/09/24 09:57:16;;;;;;;7.20;1.00;;;15.90;99.90;;;;;;5251681;28;20221;-65
2021/09/24 09:59:53;;;;;;;6.03;1.33;;;15.80;99.90;;;;;;5250886;28;20609;-65
2021/09/24 10:02:33;;;;;;;4.23;0.83;;;15.60;99.90;;;;;;5250618;28;20225;-68
2021/09/24 10:05:06;;;;;;;5.93;1.00;;;15.70;99.90;;;;;;5250869;28;20287;-65
2021/09/24 10:07:38;;;;;;;7.73;1.13;;;15.50;99.90;;;;;;5250616;28;20311;-65
2021/09/24 10:10:15;;;;;;;5.07;0.90;;;15.40;99.90;;;;;;5251936;28;20593;-60
2021/09/24 10:12:48;;;;;;;6.20;1.40;;;15.40;99.90;;;;;;5250487;28;20294;-70
2021/09/24 10:15:22;;;;;;;8.07;1.40;;;15.50;99.90;;;;;;5250933;28;20634;-67
2021/09/24 10:17:54;;;;;;;8.03;1.67;;;15.50;99.90;;;;;;5251611;28;20667;-69
2021/09/24 10:20:26;;;;;;;9.40;1.23;;;15.70;99.90;;;;;;5250496;28;20656;-71
2021/09/24 10:23:00;;;;;;;6.23;1.13;;;15.90;99.90;;;;;;5250838;28;20233;-67
2021/09/24 10:25:36;;;;;;;9.43;0.93;;;16.00;99.90;;;;;;5249851;28;20222;-65
2021/09/24 10:28:11;;;;;;;8.10;1.10;;;16.20;99.90;;;;;;5250446;28;20232;-65
2021/09/24 10:30:43;;;;;;;5.10;0.90;;;16.30;99.90;;;;;;5250843;28;20234;-68
2021/09/24 10:33:16;;;;;;;7.50;1.00;;;16.30;99.90;;;;;;5251304;28;20229;-63
2021/09/24 10:35:54;;;;;;;9.37;1.33;;;16.40;99.90;;;;;;5251193;28;20205;-67
2021/09/24 10:38:32;;;;;;;8.97;1.20;;;16.50;99.90;;;;;;5250756;28;20229;-66
2021/09/24 10:41:07;;;;;;;6.00;1.43;;;16.40;99.90;;;;;;5251186;28;20292;-68
2021/09/24 10:43:50;;;;;;;6.17;1.20;;;16.10;99.90;;;;;;5249867;28;20254;-65
2021/09/24 10:46:25;;;;;;;5.40;1.00;;;15.90;99.90;;;;;;5252021;28;20197;-70
2021/09/24 10:49:19;;;;;;;7.43;1.27;;;15.70;99.90;;;;;;5250936;28;20533;-71
2021/09/24 10:51:57;;;;;;;8.93;1.60;;;15.70;99.90;;;;;;5253756;28;20204;-64
2021/09/24 10:54:29;;;;;;;5.73;1.20;;;15.80;99.90;;;;;;5250267;28;20224;-69
2021/09/24 10:57:03;;;;;;;7.83;1.13;;;15.80;99.90;;;;;;5250761;28;20535;-65
2021/09/24 10:59:38;;;;;;;8.57;1.30;;;16.00;99.90;;;;;;5250156;28;20238;-72
2021/09/24 11:02:39;;;;;;;8.93;2.00;;;16.20;99.90;;;;;;5250277;28;20270;-71
2021/09/24 11:05:12;;;;;;;8.37;1.77;;;16.30;99.90;;;;;;5250400;28;20222;-70
2021/09/24 11:07:44;;;;;;;8.27;1.20;;;16.40;99.90;;;;;;5250890;28;20201;-68
2021/09/24 11:10:36;;;;;;;9.00;1.07;;;16.50;99.90;;;;;;5276133;28;20204;-69
2021/09/24 11:13:08;;;;;;;4.53;1.20;;;16.50;99.90;;;;;;5250529;28;20485;-69
2021/09/24 11:16:03;;;;;;;9.50;1.80;;;16.30;99.90;;;;;;5250197;28;20209;-68
2021/09/24 11:18:51;;;;;;;7.87;1.63;;;16.20;99.90;;;;;;5248960;28;20612;-70
2021/09/24 11:21:33;;;;;;;8.77;1.37;;;16.10;99.90;;;;;;5248674;28;20201;-68
2021/09/24 11:24:26;;;;;;;11.20;1.70;;;15.90;99.90;;;;;;5248621;28;20564;-68
2021/09/24 11:27:06;;;;;;;9.73;1.40;;;15.80;99.90;;;;;;5248703;28;20197;-70
2021/09/24 11:30:05;;;;;;;8.33;1.80;;;15.80;99.90;;;;;;5248399;28;20235;-69
2021/09/24 11:32:40;;;;;;;10.20;1.60;;;16.10;99.90;;;;;;5249975;28;20231;-69
2021/09/24 11:35:39;;;;;;;11.93;1.70;;;16.20;99.90;;;;;;5249953;28;20254;-65
2021/09/24 11:38:20;;;;;;;8.27;1.50;;;16.10;99.90;;;;;;5247234;28;20197;-69
2021/09/24 11:40:56;;;;;;;10.07;1.50;;;16.10;99.90;;;;;;5249629;28;20204;-68
2021/09/24 11:43:34;;;;;;;10.60;2.00;;;16.00;99.90;;;;;;5248125;28;20204;-71
2021/09/24 11:46:26;;;;;;;7.10;1.40;;;16.10;99.90;;;;;;5249507;28;20208;-70
2021/09/24 11:48:58;;;;;;;8.47;1.40;;;16.10;99.90;;;;;;5249608;28;20542;-69
2021/09/24 11:51:31;;;;;;;9.83;1.60;;;15.90;99.90;;;;;;5248351;28;20213;-70
2021/09/24 11:54:03;;;;;;;7.57;1.50;;;15.80;99.90;;;;;;5249737;28;20221;-68
2021/09/24 11:56:41;;;;;;;9.93;1.63;;;15.70;99.90;;;;;;5248417;28;20210;-68
2021/09/24 11:59:13;;;;;;;7.97;1.53;;;15.70;99.90;;;;;;5248563;28;20201;-68
2021/09/24 12:01:46;;;;;;;8.40;1.67;;;15.70;99.90;;;;;;5249503;28;20667;-72
2021/09/24 12:04:18;;;;;;;10.53;1.67;;;15.70;99.90;;;;;;5250479;28;20624;-71
2021/09/24 12:06:54;;;;;;;11.40;1.93;;;15.80;99.90;;;;;;5250344;28;20516;-71
2021/09/24 12:09:28;;;;;;;15.20;2.20;;;15.90;99.90;;;;;;5250400;28;20620;-69
2021/09/24 12:12:00;;;;;;;10.43;1.83;;;15.90;99.90;;;;;;5249602;28;20218;-70
2021/09/24 12:14:33;;;;;;;8.93;1.67;;;16.20;99.90;;;;;;5249559;28;20231;-71
2021/09/24 12:17:08;;;;;;;9.43;1.40;;;16.10;99.90;;;;;;5248151;28;20688;-71
2021/09/24 12:19:40;;;;;;;8.93;1.67;;;16.20;99.90;;;;;;5249442;28;20301;-65
2021/09/24 12:22:14;;;;;;;11.03;1.53;;;16.30;99.90;;;;;;5249823;28;20193;-68
2021/09/24 12:24:47;;;;;;;16.43;1.93;;;16.30;99.90;;;;;;5250169;28;20213;-70
2021/09/24 12:27:30;;;;;;;11.13;1.97;;;16.20;99.90;;;;;;5249021;28;20697;-70
2021/09/24 12:30:17;;;;;;;9.67;1.53;;;16.20;99.90;;;;;;5250450;28;20231;-71
2021/09/24 12:32:49;;;;;;;11.13;1.80;;;16.20;99.90;;;;;;5253659;28;20525;-70
2021/09/24 12:35:23;;;;;;;14.70;2.27;;;16.20;99.90;;;;;;5253547;28;20220;-70
2021/09/24 12:37:55;;;;;;;11.80;1.73;;;16.30;99.90;;;;;;5253443;28;20196;-68
2021/09/24 12:40:27;;;;;;;9.27;1.50;;;16.20;99.90;;;;;;5252078;28;20204;-71
2021/09/24 12:43:00;;;;;;;8.50;1.70;;;15.90;99.90;;;;;;5251480;28;20215;-71
2021/09/24 12:45:43;;;;;;;6.37;1.50;;;15.70;99.90;;;;;;5251990;28;20212;-65
2021/09/24 12:48:16;;;;;;;14.43;1.80;;;15.60;99.90;;;;;;5251736;28;20306;-69
2021/09/24 12:50:50;;;;;;;12.77;1.80;;;15.40;99.90;;;;;;5253069;28;20305;-72
2021/09/24 12:53:23;;;;;;;11.27;1.90;;;15.40;99.90;;;;;;5251762;28;20640;-70
2021/09/24 12:56:01;;;;;;;8.77;1.63;;;15.50;99.90;;;;;;5252971;28;20205;-71
2021/09/24 12:58:41;;;;;;;7.80;1.50;;;15.70;99.90;;;;;;5253713;28;20223;-72
2021/09/24 13:01:15;;;;;;;9.27;1.80;;;15.80;99.90;;;;;;5253083;28;20521;-67
2021/09/24 13:03:47;;;;;;;12.83;1.93;;;15.90;99.90;;;;;;5252783;28;20188;-70
2021/09/24 13:06:24;;;;;;;11.87;2.00;;;15.70;99.90;;;;;;5254729;28;20291;-69
2021/09/24 13:08:57;;;;;;;11.00;2.00;;;15.60;99.90;;;;;;5252535;28;20197;-61
2021/09/24 13:11:32;;;;;;;10.03;1.43;;;15.60;99.90;;;;;;5251256;28;20288;-72
2021/09/24 13:14:05;;;;;;;8.77;1.47;;;15.40;99.90;;;;;;5251400;28;20224;-69
2021/09/24 13:16:40;;;;;;;7.17;1.30;;;15.30;99.90;;;;;;5252209;28;20215;-69
2021/09/24 13:19:13;;;;;;;12.57;1.70;;;15.30;99.90;;;;;;5251778;28;20203;-70
2021/09/24 13:21:45;;;;;;;9.37;1.73;;;15.40;99.90;;;;;;5251963;28;20205;-71